sensor_id;sensor_type;location;lat;lon;timestamp;P1;durP1;ratioP1;P2;durP2;ratioP2
57443;SDS011;43289;52.962;6.196;2023-09-19T00:00:23;7.45;;;2.30;;
57443;SDS011;43289;52.962;6.196;2023-09-19T00:02:56;11.27;;;3.00;;
57443;SDS011;43289;52.962;6.196;2023-09-19T00:05:25;9.23;;;2.60;;
57443;SDS011;43289;52.962;6.196;2023-09-19T00:07:53;10.02;;;3.15;;
57443;SDS011;43289;52.962;6.196;2023-09-19T00:10:23;8.77;;;2.05;;
57443;SDS011;43289;52.962;6.196;2023-09-19T00:12:53;7.93;;;2.42;;
57443;SDS011;43289;52.962;6.196;2023-09-19T00:15:23;11.10;;;2.65;;
57443;SDS011;43289;52.962;6.196;2023-09-19T00:17:51;7.10;;;2.67;;
57443;SDS011;43289;52.962;6.196;2023-09-19T00:20:17;7.50;;;2.80;;
57443;SDS011;43289;52.962;6.196;2023-09-19T00:22:47;12.65;;;3.33;;
57443;SDS011;43289;52.962;6.196;2023-09-19T00:25:15;10.90;;;2.70;;
57443;SDS011;43289;52.962;6.196;2023-09-19T00:27:43;9.88;;;3.05;;
57443;SDS011;43289;52.962;6.196;2023-09-19T00:30:10;8.32;;;2.35;;
57443;SDS011;43289;52.962;6.196;2023-09-19T00:32:42;9.20;;;2.58;;
57443;SDS011;43289;52.962;6.196;2023-09-19T00:35:08;11.20;;;2.53;;
57443;SDS011;43289;52.962;6.196;2023-09-19T00:37:35;9.65;;;2.55;;
57443;SDS011;43289;52.962;6.196;2023-09-19T00:40:02;12.93;;;2.70;;
57443;SDS011;43289;52.962;6.196;2023-09-19T00:42:31;8.95;;;2.97;;
57443;SDS011;43289;52.962;6.196;2023-09-19T00:44:58;8.75;;;3.50;;
57443;SDS011;43289;52.962;6.196;2023-09-19T00:47:24;11.18;;;2.58;;
57443;SDS011;43289;52.962;6.196;2023-09-19T00:49:50;7.93;;;2.40;;
57443;SDS011;43289;52.962;6.196;2023-09-19T00:52:17;9.30;;;2.55;;
57443;SDS011;43289;52.962;6.196;2023-09-19T00:54:48;13.25;;;3.03;;
57443;SDS011;43289;52.962;6.196;2023-09-19T00:57:14;7.82;;;2.38;;
57443;SDS011;43289;52.962;6.196;2023-09-19T00:59:44;7.68;;;2.92;;
57443;SDS011;43289;52.962;6.196;2023-09-19T01:02:10;8.60;;;2.75;;
57443;SDS011;43289;52.962;6.196;2023-09-19T01:04:40;9.07;;;2.50;;
57443;SDS011;43289;52.962;6.196;2023-09-19T01:07:06;7.85;;;2.90;;
57443;SDS011;43289;52.962;6.196;2023-09-19T01:09:33;10.90;;;3.35;;
57443;SDS011;43289;52.962;6.196;2023-09-19T01:12:01;9.88;;;3.05;;
57443;SDS011;43289;52.962;6.196;2023-09-19T01:14:41;11.70;;;3.03;;
57443;SDS011;43289;52.962;6.196;2023-09-19T01:17:23;12.63;;;2.40;;
57443;SDS011;43289;52.962;6.196;2023-09-19T01:22:20;6.85;;;2.40;;
57443;SDS011;43289;52.962;6.196;2023-09-19T01:27:30;5.82;;;2.10;;
57443;SDS011;43289;52.962;6.196;2023-09-19T01:30:07;9.80;;;2.70;;
57443;SDS011;43289;52.962;6.196;2023-09-19T01:32:33;7.68;;;2.45;;
57443;SDS011;43289;52.962;6.196;2023-09-19T01:34:59;9.98;;;2.33;;
57443;SDS011;43289;52.962;6.196;2023-09-19T01:37:29;12.85;;;3.05;;
57443;SDS011;43289;52.962;6.196;2023-09-19T01:45:00;8.02;;;2.53;;
57443;SDS011;43289;52.962;6.196;2023-09-19T01:49:56;7.95;;;2.47;;
57443;SDS011;43289;52.962;6.196;2023-09-19T01:52:27;7.25;;;2.15;;
57443;SDS011;43289;52.962;6.196;2023-09-19T01:54:56;10.18;;;2.35;;
57443;SDS011;43289;52.962;6.196;2023-09-19T01:57:31;9.40;;;2.45;;
57443;SDS011;43289;52.962;6.196;2023-09-19T02:00:01;12.77;;;2.92;;
57443;SDS011;43289;52.962;6.196;2023-09-19T02:02:34;8.73;;;2.65;;
57443;SDS011;43289;52.962;6.196;2023-09-19T02:05:00;10.25;;;2.30;;
57443;SDS011;43289;52.962;6.196;2023-09-19T02:07:26;7.40;;;2.40;;
57443;SDS011;43289;52.962;6.196;2023-09-19T02:12:22;7.13;;;2.30;;
57443;SDS011;43289;52.962;6.196;2023-09-19T02:14:48;10.38;;;2.78;;
57443;SDS011;43289;52.962;6.196;2023-09-19T02:20:11;12.25;;;2.80;;
57443;SDS011;43289;52.962;6.196;2023-09-19T02:22:39;10.68;;;2.22;;
57443;SDS011;43289;52.962;6.196;2023-09-19T02:25:05;7.97;;;2.40;;
57443;SDS011;43289;52.962;6.196;2023-09-19T02:27:32;5.85;;;2.40;;
57443;SDS011;43289;52.962;6.196;2023-09-19T02:29:58;9.85;;;2.60;;
57443;SDS011;43289;52.962;6.196;2023-09-19T02:32:27;8.93;;;2.63;;
57443;SDS011;43289;52.962;6.196;2023-09-19T02:34:55;6.57;;;2.20;;
57443;SDS011;43289;52.962;6.196;2023-09-19T02:37:22;7.72;;;3.20;;
57443;SDS011;43289;52.962;6.196;2023-09-19T02:39:50;10.15;;;3.03;;
57443;SDS011;43289;52.962;6.196;2023-09-19T02:42:16;17.38;;;2.53;;
57443;SDS011;43289;52.962;6.196;2023-09-19T02:44:42;7.93;;;2.30;;
57443;SDS011;43289;52.962;6.196;2023-09-19T02:47:08;9.77;;;3.20;;
57443;SDS011;43289;52.962;6.196;2023-09-19T02:49:34;5.75;;;2.38;;
57443;SDS011;43289;52.962;6.196;2023-09-19T02:52:01;12.45;;;3.25;;
57443;SDS011;43289;52.962;6.196;2023-09-19T02:54:33;8.80;;;2.63;;
57443;SDS011;43289;52.962;6.196;2023-09-19T02:56:59;8.20;;;2.55;;
57443;SDS011;43289;52.962;6.196;2023-09-19T02:59:25;11.23;;;2.70;;
57443;SDS011;43289;52.962;6.196;2023-09-19T03:04:25;10.15;;;2.88;;
57443;SDS011;43289;52.962;6.196;2023-09-19T03:06:51;7.88;;;2.50;;
57443;SDS011;43289;52.962;6.196;2023-09-19T03:09:22;11.45;;;3.38;;
57443;SDS011;43289;52.962;6.196;2023-09-19T03:11:48;12.02;;;3.25;;
57443;SDS011;43289;52.962;6.196;2023-09-19T03:14:15;10.98;;;3.33;;
57443;SDS011;43289;52.962;6.196;2023-09-19T03:16:41;10.77;;;2.45;;
57443;SDS011;43289;52.962;6.196;2023-09-19T03:19:07;8.20;;;2.65;;
57443;SDS011;43289;52.962;6.196;2023-09-19T03:21:42;6.95;;;2.78;;
57443;SDS011;43289;52.962;6.196;2023-09-19T03:24:08;11.85;;;3.50;;
57443;SDS011;43289;52.962;6.196;2023-09-19T03:26:35;12.35;;;2.67;;
57443;SDS011;43289;52.962;6.196;2023-09-19T03:29:03;6.90;;;2.47;;
57443;SDS011;43289;52.962;6.196;2023-09-19T03:31:32;14.60;;;2.63;;
57443;SDS011;43289;52.962;6.196;2023-09-19T03:34:01;7.97;;;2.42;;
57443;SDS011;43289;52.962;6.196;2023-09-19T03:36:29;13.20;;;3.20;;
57443;SDS011;43289;52.962;6.196;2023-09-19T03:38:56;6.60;;;2.42;;
57443;SDS011;43289;52.962;6.196;2023-09-19T03:41:22;8.68;;;2.75;;
57443;SDS011;43289;52.962;6.196;2023-09-19T03:43:48;11.98;;;3.15;;
57443;SDS011;43289;52.962;6.196;2023-09-19T03:46:14;9.10;;;2.70;;
57443;SDS011;43289;52.962;6.196;2023-09-19T03:51:17;7.45;;;3.15;;
57443;SDS011;43289;52.962;6.196;2023-09-19T03:53:43;9.63;;;2.50;;
57443;SDS011;43289;52.962;6.196;2023-09-19T11:55:09;13.43;;;3.08;;
57443;SDS011;43289;52.962;6.196;2023-09-19T11:57:36;14.13;;;3.15;;
57443;SDS011;43289;52.962;6.196;2023-09-19T12:00:02;8.98;;;3.30;;
57443;SDS011;43289;52.962;6.196;2023-09-19T12:02:37;12.38;;;3.70;;
57443;SDS011;43289;52.962;6.196;2023-09-19T12:05:06;11.13;;;3.17;;
57443;SDS011;43289;52.962;6.196;2023-09-19T12:07:32;7.82;;;3.35;;
57443;SDS011;43289;52.962;6.196;2023-09-19T12:10:07;6.38;;;2.85;;
57443;SDS011;43289;52.962;6.196;2023-09-19T12:12:36;8.52;;;2.58;;
57443;SDS011;43289;52.962;6.196;2023-09-19T12:15:02;10.82;;;2.78;;
57443;SDS011;43289;52.962;6.196;2023-09-19T12:17:38;9.63;;;2.42;;
57443;SDS011;43289;52.962;6.196;2023-09-19T12:20:06;8.70;;;3.08;;
57443;SDS011;43289;52.962;6.196;2023-09-19T12:22:43;10.75;;;3.40;;
57443;SDS011;43289;52.962;6.196;2023-09-19T12:25:09;8.73;;;2.30;;
57443;SDS011;43289;52.962;6.196;2023-09-19T12:27:46;9.07;;;2.42;;
57443;SDS011;43289;52.962;6.196;2023-09-19T12:30:13;7.63;;;2.28;;
57443;SDS011;43289;52.962;6.196;2023-09-19T12:32:40;11.15;;;2.65;;
57443;SDS011;43289;52.962;6.196;2023-09-19T12:35:07;11.55;;;3.08;;
57443;SDS011;43289;52.962;6.196;2023-09-19T12:37:36;8.32;;;2.58;;
57443;SDS011;43289;52.962;6.196;2023-09-19T12:40:05;10.15;;;2.65;;
57443;SDS011;43289;52.962;6.196;2023-09-19T12:42:42;9.63;;;2.22;;
57443;SDS011;43289;52.962;6.196;2023-09-19T12:45:09;10.25;;;2.25;;
57443;SDS011;43289;52.962;6.196;2023-09-19T12:47:38;8.18;;;2.60;;
57443;SDS011;43289;52.962;6.196;2023-09-19T12:50:09;6.57;;;2.33;;
57443;SDS011;43289;52.962;6.196;2023-09-19T12:52:48;7.85;;;2.97;;
57443;SDS011;43289;52.962;6.196;2023-09-19T12:55:24;6.97;;;2.28;;
57443;SDS011;43289;52.962;6.196;2023-09-19T12:57:55;10.70;;;2.47;;
57443;SDS011;43289;52.962;6.196;2023-09-19T13:00:21;8.60;;;2.53;;
57443;SDS011;43289;52.962;6.196;2023-09-19T13:05:47;10.45;;;2.55;;
57443;SDS011;43289;52.962;6.196;2023-09-19T13:08:35;6.70;;;1.90;;
57443;SDS011;43289;52.962;6.196;2023-09-19T13:11:05;7.32;;;2.03;;
57443;SDS011;43289;52.962;6.196;2023-09-19T13:13:51;12.40;;;3.10;;
57443;SDS011;43289;52.962;6.196;2023-09-19T13:19:40;8.27;;;1.83;;
57443;SDS011;43289;52.962;6.196;2023-09-19T13:24:57;5.55;;;2.05;;
57443;SDS011;43289;52.962;6.196;2023-09-19T13:27:24;6.80;;;1.80;;
57443;SDS011;43289;52.962;6.196;2023-09-19T13:29:49;7.65;;;2.28;;
57443;SDS011;43289;52.962;6.196;2023-09-19T13:32:16;4.43;;;1.88;;
57443;SDS011;43289;52.962;6.196;2023-09-19T13:34:42;5.65;;;1.92;;
57443;SDS011;43289;52.962;6.196;2023-09-19T13:37:08;6.80;;;1.90;;
57443;SDS011;43289;52.962;6.196;2023-09-19T13:39:36;7.80;;;2.20;;
57443;SDS011;43289;52.962;6.196;2023-09-19T13:42:08;5.80;;;2.25;;
57443;SDS011;43289;52.962;6.196;2023-09-19T13:44:37;6.53;;;1.77;;
57443;SDS011;43289;52.962;6.196;2023-09-19T13:47:03;3.90;;;1.77;;
57443;SDS011;43289;52.962;6.196;2023-09-19T13:49:34;8.48;;;2.00;;
57443;SDS011;43289;52.962;6.196;2023-09-19T13:52:01;5.50;;;2.00;;
57443;SDS011;43289;52.962;6.196;2023-09-19T13:54:30;6.32;;;1.90;;
57443;SDS011;43289;52.962;6.196;2023-09-19T13:56:56;6.65;;;1.75;;
57443;SDS011;43289;52.962;6.196;2023-09-19T13:59:25;7.22;;;2.05;;
57443;SDS011;43289;52.962;6.196;2023-09-19T14:01:53;5.60;;;1.80;;
57443;SDS011;43289;52.962;6.196;2023-09-19T14:04:19;5.00;;;2.00;;
57443;SDS011;43289;52.962;6.196;2023-09-19T14:06:47;8.30;;;2.33;;
57443;SDS011;43289;52.962;6.196;2023-09-19T14:09:13;7.47;;;1.98;;
57443;SDS011;43289;52.962;6.196;2023-09-19T14:11:41;7.60;;;2.35;;
57443;SDS011;43289;52.962;6.196;2023-09-19T14:14:07;7.13;;;1.67;;
57443;SDS011;43289;52.962;6.196;2023-09-19T14:16:33;5.65;;;2.13;;
57443;SDS011;43289;52.962;6.196;2023-09-19T14:18:59;6.57;;;1.90;;
57443;SDS011;43289;52.962;6.196;2023-09-19T14:21:25;9.13;;;2.15;;
57443;SDS011;43289;52.962;6.196;2023-09-19T14:23:51;6.82;;;1.92;;
57443;SDS011;43289;52.962;6.196;2023-09-19T14:26:19;4.38;;;1.90;;
57443;SDS011;43289;52.962;6.196;2023-09-19T14:28:48;9.25;;;1.88;;
57443;SDS011;43289;52.962;6.196;2023-09-19T14:31:14;7.10;;;2.05;;
57443;SDS011;43289;52.962;6.196;2023-09-19T14:33:40;6.03;;;1.88;;
57443;SDS011;43289;52.962;6.196;2023-09-19T14:36:07;9.13;;;2.22;;
57443;SDS011;43289;52.962;6.196;2023-09-19T14:38:37;16.08;;;2.83;;
57443;SDS011;43289;52.962;6.196;2023-09-19T14:41:05;5.55;;;1.85;;
57443;SDS011;43289;52.962;6.196;2023-09-19T14:43:31;7.93;;;2.00;;
57443;SDS011;43289;52.962;6.196;2023-09-19T14:46:06;4.15;;;1.58;;
57443;SDS011;43289;52.962;6.196;2023-09-19T14:48:33;5.55;;;2.15;;
57443;SDS011;43289;52.962;6.196;2023-09-19T14:51:02;4.72;;;1.80;;
57443;SDS011;43289;52.962;6.196;2023-09-19T14:53:29;12.15;;;1.90;;
57443;SDS011;43289;52.962;6.196;2023-09-19T14:55:55;4.72;;;1.90;;
57443;SDS011;43289;52.962;6.196;2023-09-19T14:58:21;7.15;;;1.92;;
57443;SDS011;43289;52.962;6.196;2023-09-19T15:00:47;6.13;;;2.58;;
57443;SDS011;43289;52.962;6.196;2023-09-19T15:03:13;6.75;;;1.85;;
57443;SDS011;43289;52.962;6.196;2023-09-19T15:05:39;5.65;;;1.80;;
57443;SDS011;43289;52.962;6.196;2023-09-19T15:08:05;5.22;;;1.60;;
57443;SDS011;43289;52.962;6.196;2023-09-19T15:10:32;3.17;;;1.50;;
57443;SDS011;43289;52.962;6.196;2023-09-19T15:12:57;5.30;;;1.83;;
57443;SDS011;43289;52.962;6.196;2023-09-19T15:15:23;6.13;;;2.30;;
57443;SDS011;43289;52.962;6.196;2023-09-19T15:17:49;4.93;;;1.70;;
57443;SDS011;43289;52.962;6.196;2023-09-19T15:20:16;6.70;;;2.20;;
57443;SDS011;43289;52.962;6.196;2023-09-19T15:22:42;12.27;;;1.92;;
57443;SDS011;43289;52.962;6.196;2023-09-19T15:25:09;5.45;;;2.20;;
57443;SDS011;43289;52.962;6.196;2023-09-19T15:27:35;4.30;;;1.92;;
57443;SDS011;43289;52.962;6.196;2023-09-19T15:30:02;3.70;;;1.75;;
57443;SDS011;43289;52.962;6.196;2023-09-19T15:32:28;5.78;;;2.30;;
57443;SDS011;43289;52.962;6.196;2023-09-19T15:34:54;6.65;;;2.28;;
57443;SDS011;43289;52.962;6.196;2023-09-19T15:37:20;5.85;;;2.20;;
57443;SDS011;43289;52.962;6.196;2023-09-19T15:39:47;8.23;;;2.15;;
57443;SDS011;43289;52.962;6.196;2023-09-19T15:42:13;6.78;;;2.28;;
57443;SDS011;43289;52.962;6.196;2023-09-19T15:44:42;5.88;;;2.10;;
57443;SDS011;43289;52.962;6.196;2023-09-19T15:47:09;10.40;;;2.05;;
57443;SDS011;43289;52.962;6.196;2023-09-19T15:49:35;7.90;;;2.35;;
57443;SDS011;43289;52.962;6.196;2023-09-19T15:52:01;8.07;;;2.20;;
57443;SDS011;43289;52.962;6.196;2023-09-19T15:54:28;6.78;;;2.63;;
57443;SDS011;43289;52.962;6.196;2023-09-19T15:56:54;9.02;;;2.80;;
57443;SDS011;43289;52.962;6.196;2023-09-19T15:59:20;7.07;;;2.55;;
57443;SDS011;43289;52.962;6.196;2023-09-19T16:01:46;4.43;;;2.63;;
57443;SDS011;43289;52.962;6.196;2023-09-19T16:04:13;5.80;;;2.70;;
57443;SDS011;43289;52.962;6.196;2023-09-19T16:06:40;9.73;;;2.40;;
57443;SDS011;43289;52.962;6.196;2023-09-19T16:09:06;5.65;;;2.60;;
57443;SDS011;43289;52.962;6.196;2023-09-19T16:11:33;4.90;;;2.15;;
57443;SDS011;43289;52.962;6.196;2023-09-19T16:14:00;9.15;;;2.47;;
57443;SDS011;43289;52.962;6.196;2023-09-19T16:16:26;6.20;;;2.35;;
57443;SDS011;43289;52.962;6.196;2023-09-19T16:18:56;4.15;;;2.05;;
57443;SDS011;43289;52.962;6.196;2023-09-19T16:21:33;9.90;;;2.95;;
57443;SDS011;43289;52.962;6.196;2023-09-19T16:24:07;9.23;;;3.30;;
57443;SDS011;43289;52.962;6.196;2023-09-19T16:26:35;8.45;;;2.47;;
57443;SDS011;43289;52.962;6.196;2023-09-19T16:29:04;7.72;;;2.55;;
57443;SDS011;43289;52.962;6.196;2023-09-19T16:31:30;7.80;;;2.42;;
57443;SDS011;43289;52.962;6.196;2023-09-19T16:33:58;9.38;;;3.13;;
57443;SDS011;43289;52.962;6.196;2023-09-19T16:36:34;10.52;;;2.75;;
57443;SDS011;43289;52.962;6.196;2023-09-19T16:39:01;9.60;;;3.78;;
57443;SDS011;43289;52.962;6.196;2023-09-19T16:41:34;8.43;;;2.97;;
57443;SDS011;43289;52.962;6.196;2023-09-19T16:44:01;9.88;;;3.28;;
57443;SDS011;43289;52.962;6.196;2023-09-19T16:46:31;11.57;;;3.25;;
57443;SDS011;43289;52.962;6.196;2023-09-19T16:48:59;4.82;;;2.13;;
57443;SDS011;43289;52.962;6.196;2023-09-19T16:51:25;8.43;;;2.88;;
57443;SDS011;43289;52.962;6.196;2023-09-19T16:53:54;9.35;;;3.30;;
57443;SDS011;43289;52.962;6.196;2023-09-19T16:56:20;6.32;;;2.83;;
57443;SDS011;43289;52.962;6.196;2023-09-19T16:58:47;14.05;;;3.40;;
57443;SDS011;43289;52.962;6.196;2023-09-19T17:01:15;9.85;;;3.40;;
57443;SDS011;43289;52.962;6.196;2023-09-19T17:03:43;9.95;;;3.40;;
57443;SDS011;43289;52.962;6.196;2023-09-19T17:06:10;8.80;;;3.05;;
57443;SDS011;43289;52.962;6.196;2023-09-19T17:08:37;7.93;;;3.28;;
57443;SDS011;43289;52.962;6.196;2023-09-19T17:11:18;9.40;;;3.80;;
57443;SDS011;43289;52.962;6.196;2023-09-19T17:13:46;11.23;;;3.90;;
57443;SDS011;43289;52.962;6.196;2023-09-19T17:16:13;8.75;;;3.47;;
57443;SDS011;43289;52.962;6.196;2023-09-19T17:18:41;9.20;;;3.75;;
57443;SDS011;43289;52.962;6.196;2023-09-19T17:21:08;7.40;;;3.00;;
57443;SDS011;43289;52.962;6.196;2023-09-19T17:23:36;9.05;;;3.67;;
57443;SDS011;43289;52.962;6.196;2023-09-19T17:26:07;8.55;;;3.25;;
57443;SDS011;43289;52.962;6.196;2023-09-19T17:28:35;11.00;;;4.22;;
57443;SDS011;43289;52.962;6.196;2023-09-19T17:31:02;7.78;;;3.25;;
57443;SDS011;43289;52.962;6.196;2023-09-19T17:33:31;11.13;;;4.28;;
57443;SDS011;43289;52.962;6.196;2023-09-19T17:36:07;9.18;;;3.80;;
57443;SDS011;43289;52.962;6.196;2023-09-19T17:38:47;10.52;;;3.50;;
57443;SDS011;43289;52.962;6.196;2023-09-19T17:41:14;12.00;;;3.67;;
57443;SDS011;43289;52.962;6.196;2023-09-19T17:43:56;11.20;;;3.67;;
57443;SDS011;43289;52.962;6.196;2023-09-19T17:46:24;9.48;;;3.30;;
57443;SDS011;43289;52.962;6.196;2023-09-19T17:48:52;8.93;;;3.47;;
57443;SDS011;43289;52.962;6.196;2023-09-19T17:51:22;8.30;;;3.42;;
57443;SDS011;43289;52.962;6.196;2023-09-19T17:56:31;6.70;;;3.30;;
57443;SDS011;43289;52.962;6.196;2023-09-19T17:58:58;8.48;;;3.25;;
57443;SDS011;43289;52.962;6.196;2023-09-19T18:01:25;10.55;;;4.28;;
57443;SDS011;43289;52.962;6.196;2023-09-19T18:03:53;10.60;;;4.78;;
57443;SDS011;43289;52.962;6.196;2023-09-19T18:06:27;13.35;;;4.28;;
57443;SDS011;43289;52.962;6.196;2023-09-19T18:08:55;10.75;;;3.72;;
57443;SDS011;43289;52.962;6.196;2023-09-19T18:11:22;10.23;;;3.72;;
57443;SDS011;43289;52.962;6.196;2023-09-19T18:13:54;10.77;;;4.40;;
57443;SDS011;43289;52.962;6.196;2023-09-19T18:16:22;7.95;;;3.50;;
57443;SDS011;43289;52.962;6.196;2023-09-19T18:18:52;10.30;;;4.05;;
57443;SDS011;43289;52.962;6.196;2023-09-19T18:21:21;8.95;;;3.17;;
57443;SDS011;43289;52.962;6.196;2023-09-19T18:23:52;10.40;;;4.03;;
57443;SDS011;43289;52.962;6.196;2023-09-19T18:26:19;9.63;;;3.97;;
57443;SDS011;43289;52.962;6.196;2023-09-19T18:28:45;9.80;;;4.00;;
57443;SDS011;43289;52.962;6.196;2023-09-19T18:31:11;9.77;;;4.03;;
57443;SDS011;43289;52.962;6.196;2023-09-19T18:33:37;12.10;;;4.43;;
57443;SDS011;43289;52.962;6.196;2023-09-19T18:36:04;11.95;;;3.35;;
57443;SDS011;43289;52.962;6.196;2023-09-19T18:38:32;8.85;;;3.72;;
57443;SDS011;43289;52.962;6.196;2023-09-19T18:40:58;8.40;;;3.38;;
57443;SDS011;43289;52.962;6.196;2023-09-19T18:43:24;6.93;;;3.38;;
57443;SDS011;43289;52.962;6.196;2023-09-19T18:45:55;9.60;;;3.92;;
57443;SDS011;43289;52.962;6.196;2023-09-19T18:48:21;9.77;;;4.38;;
57443;SDS011;43289;52.962;6.196;2023-09-19T18:50:48;10.70;;;3.65;;
57443;SDS011;43289;52.962;6.196;2023-09-19T18:53:16;10.05;;;3.95;;
57443;SDS011;43289;52.962;6.196;2023-09-19T18:55:43;9.23;;;4.13;;
57443;SDS011;43289;52.962;6.196;2023-09-19T18:58:11;9.65;;;4.18;;
57443;SDS011;43289;52.962;6.196;2023-09-19T19:00:39;13.75;;;3.80;;
57443;SDS011;43289;52.962;6.196;2023-09-19T19:03:08;7.90;;;3.83;;
57443;SDS011;43289;52.962;6.196;2023-09-19T19:05:37;8.80;;;3.80;;
57443;SDS011;43289;52.962;6.196;2023-09-19T19:08:08;10.10;;;4.35;;
57443;SDS011;43289;52.962;6.196;2023-09-19T19:10:38;9.75;;;4.03;;
57443;SDS011;43289;52.962;6.196;2023-09-19T19:13:04;11.80;;;3.85;;
57443;SDS011;43289;52.962;6.196;2023-09-19T19:15:31;9.88;;;4.07;;
57443;SDS011;43289;52.962;6.196;2023-09-19T19:17:59;11.32;;;4.10;;
57443;SDS011;43289;52.962;6.196;2023-09-19T19:20:25;9.20;;;3.40;;
57443;SDS011;43289;52.962;6.196;2023-09-19T19:22:53;9.98;;;4.05;;
57443;SDS011;43289;52.962;6.196;2023-09-19T19:25:19;8.07;;;3.88;;
57443;SDS011;43289;52.962;6.196;2023-09-19T19:27:46;11.55;;;4.03;;
57443;SDS011;43289;52.962;6.196;2023-09-19T19:30:12;10.32;;;4.22;;
57443;SDS011;43289;52.962;6.196;2023-09-19T19:32:42;10.43;;;4.22;;
57443;SDS011;43289;52.962;6.196;2023-09-19T19:35:12;12.35;;;4.53;;
57443;SDS011;43289;52.962;6.196;2023-09-19T19:37:38;12.35;;;3.97;;
57443;SDS011;43289;52.962;6.196;2023-09-19T19:40:05;9.68;;;4.22;;
57443;SDS011;43289;52.962;6.196;2023-09-19T19:42:33;6.90;;;3.92;;
57443;SDS011;43289;52.962;6.196;2023-09-19T19:44:59;9.52;;;4.10;;
57443;SDS011;43289;52.962;6.196;2023-09-19T19:47:26;11.60;;;4.30;;
57443;SDS011;43289;52.962;6.196;2023-09-19T19:49:54;7.22;;;3.78;;
57443;SDS011;43289;52.962;6.196;2023-09-19T19:52:24;7.22;;;3.90;;
57443;SDS011;43289;52.962;6.196;2023-09-19T19:57:30;12.75;;;4.47;;
57443;SDS011;43289;52.962;6.196;2023-09-19T19:59:56;5.90;;;3.80;;
57443;SDS011;43289;52.962;6.196;2023-09-19T20:02:22;15.48;;;4.15;;
57443;SDS011;43289;52.962;6.196;2023-09-19T20:04:48;9.32;;;4.03;;
57443;SDS011;43289;52.962;6.196;2023-09-19T20:07:14;9.63;;;4.75;;
57443;SDS011;43289;52.962;6.196;2023-09-19T20:09:40;8.57;;;4.25;;
57443;SDS011;43289;52.962;6.196;2023-09-19T20:12:06;9.63;;;5.60;;
57443;SDS011;43289;52.962;6.196;2023-09-19T20:14:32;9.63;;;4.47;;
57443;SDS011;43289;52.962;6.196;2023-09-19T20:16:59;10.07;;;4.57;;
57443;SDS011;43289;52.962;6.196;2023-09-19T20:19:25;10.95;;;4.55;;
57443;SDS011;43289;52.962;6.196;2023-09-19T20:22:02;8.93;;;4.18;;
57443;SDS011;43289;52.962;6.196;2023-09-19T20:24:33;11.90;;;4.88;;
57443;SDS011;43289;52.962;6.196;2023-09-19T20:27:02;6.95;;;4.68;;
57443;SDS011;43289;52.962;6.196;2023-09-19T20:29:32;8.48;;;4.82;;
57443;SDS011;43289;52.962;6.196;2023-09-19T20:31:58;9.60;;;4.88;;
57443;SDS011;43289;52.962;6.196;2023-09-19T20:34:29;12.02;;;4.70;;
57443;SDS011;43289;52.962;6.196;2023-09-19T20:37:07;12.88;;;4.95;;
57443;SDS011;43289;52.962;6.196;2023-09-19T20:39:42;12.48;;;4.60;;
57443;SDS011;43289;52.962;6.196;2023-09-19T20:42:08;9.38;;;5.05;;
57443;SDS011;43289;52.962;6.196;2023-09-19T20:44:37;14.35;;;4.60;;
57443;SDS011;43289;52.962;6.196;2023-09-19T20:47:27;13.02;;;5.18;;
57443;SDS011;43289;52.962;6.196;2023-09-19T23:40:11;10.48;;;5.55;;
57443;SDS011;43289;52.962;6.196;2023-09-19T23:42:37;9.80;;;5.45;;
57443;SDS011;43289;52.962;6.196;2023-09-19T23:45:06;10.20;;;5.97;;
57443;SDS011;43289;52.962;6.196;2023-09-19T23:47:34;11.90;;;5.85;;
57443;SDS011;43289;52.962;6.196;2023-09-19T23:50:01;11.38;;;5.18;;
57443;SDS011;43289;52.962;6.196;2023-09-19T23:52:28;11.15;;;5.25;;
57443;SDS011;43289;52.962;6.196;2023-09-19T23:54:54;10.02;;;4.78;;
57443;SDS011;43289;52.962;6.196;2023-09-19T23:57:24;10.07;;;4.85;;
57443;SDS011;43289;52.962;6.196;2023-09-19T23:59:52;9.73;;;5.85;;
